sensor_id;sensor_type;location;lat;lon;timestamp;P1;durP1;ratioP1;P2;durP2;ratioP2
16480;SDS011;44634;54.110;12.138;2023-03-31T00:01:07;9.43;;;3.57;;
16480;SDS011;44634;54.110;12.138;2023-03-31T00:03:36;10.93;;;3.40;;
16480;SDS011;44634;54.110;12.138;2023-03-31T00:06:10;5.20;;;3.13;;
16480;SDS011;44634;54.110;12.138;2023-03-31T00:08:44;5.73;;;3.60;;
16480;SDS011;44634;54.110;12.138;2023-03-31T00:11:17;7.53;;;3.00;;
16480;SDS011;44634;54.110;12.138;2023-03-31T00:13:45;7.43;;;3.27;;
16480;SDS011;44634;54.110;12.138;2023-03-31T00:16:13;6.00;;;3.33;;
16480;SDS011;44634;54.110;12.138;2023-03-31T00:18:43;6.27;;;2.90;;
16480;SDS011;44634;54.110;12.138;2023-03-31T00:21:14;10.67;;;3.10;;
16480;SDS011;44634;54.110;12.138;2023-03-31T00:23:51;7.60;;;2.90;;
16480;SDS011;44634;54.110;12.138;2023-03-31T00:26:20;3.23;;;2.70;;
16480;SDS011;44634;54.110;12.138;2023-03-31T00:28:49;5.07;;;2.87;;
16480;SDS011;44634;54.110;12.138;2023-03-31T00:31:17;3.70;;;2.70;;
16480;SDS011;44634;54.110;12.138;2023-03-31T00:33:47;7.70;;;3.20;;
16480;SDS011;44634;54.110;12.138;2023-03-31T00:36:15;5.63;;;2.70;;
16480;SDS011;44634;54.110;12.138;2023-03-31T00:38:46;4.80;;;2.93;;
16480;SDS011;44634;54.110;12.138;2023-03-31T00:41:14;9.07;;;2.93;;
16480;SDS011;44634;54.110;12.138;2023-03-31T00:46:32;3.37;;;2.40;;
16480;SDS011;44634;54.110;12.138;2023-03-31T00:49:02;5.73;;;2.63;;
16480;SDS011;44634;54.110;12.138;2023-03-31T00:51:31;7.17;;;2.77;;
16480;SDS011;44634;54.110;12.138;2023-03-31T00:54:02;8.63;;;3.17;;
16480;SDS011;44634;54.110;12.138;2023-03-31T00:56:34;3.87;;;3.00;;
16480;SDS011;44634;54.110;12.138;2023-03-31T00:59:06;5.93;;;3.90;;
16480;SDS011;44634;54.110;12.138;2023-03-31T01:01:37;7.43;;;3.57;;
16480;SDS011;44634;54.110;12.138;2023-03-31T01:04:10;8.43;;;3.50;;
16480;SDS011;44634;54.110;12.138;2023-03-31T01:06:43;6.77;;;3.70;;
16480;SDS011;44634;54.110;12.138;2023-03-31T01:09:17;10.27;;;4.27;;
16480;SDS011;44634;54.110;12.138;2023-03-31T01:11:45;6.70;;;3.50;;
16480;SDS011;44634;54.110;12.138;2023-03-31T01:14:14;6.93;;;3.10;;
16480;SDS011;44634;54.110;12.138;2023-03-31T01:16:42;8.20;;;3.60;;
16480;SDS011;44634;54.110;12.138;2023-03-31T01:19:12;9.50;;;3.83;;
16480;SDS011;44634;54.110;12.138;2023-03-31T01:22:04;7.67;;;3.13;;
16480;SDS011;44634;54.110;12.138;2023-03-31T01:24:57;11.73;;;3.63;;
16480;SDS011;44634;54.110;12.138;2023-03-31T01:27:43;5.60;;;3.63;;
16480;SDS011;44634;54.110;12.138;2023-03-31T01:33:30;8.27;;;3.27;;
16480;SDS011;44634;54.110;12.138;2023-03-31T01:36:28;3.37;;;3.07;;
16480;SDS011;44634;54.110;12.138;2023-03-31T01:42:24;7.43;;;3.23;;
16480;SDS011;44634;54.110;12.138;2023-03-31T01:45:00;6.17;;;3.57;;
16480;SDS011;44634;54.110;12.138;2023-03-31T01:47:34;10.70;;;3.80;;
16480;SDS011;44634;54.110;12.138;2023-03-31T01:50:07;7.40;;;3.47;;
16480;SDS011;44634;54.110;12.138;2023-03-31T01:52:43;6.93;;;3.60;;
16480;SDS011;44634;54.110;12.138;2023-03-31T01:55:19;7.80;;;3.37;;
16480;SDS011;44634;54.110;12.138;2023-03-31T01:57:51;5.37;;;3.57;;
16480;SDS011;44634;54.110;12.138;2023-03-31T02:00:24;5.93;;;3.73;;
16480;SDS011;44634;54.110;12.138;2023-03-31T02:02:59;10.17;;;3.53;;
16480;SDS011;44634;54.110;12.138;2023-03-31T02:05:34;10.27;;;4.07;;
16480;SDS011;44634;54.110;12.138;2023-03-31T02:08:05;9.77;;;4.33;;
16480;SDS011;44634;54.110;12.138;2023-03-31T02:10:38;12.33;;;3.77;;
16480;SDS011;44634;54.110;12.138;2023-03-31T02:13:08;12.37;;;4.63;;
16480;SDS011;44634;54.110;12.138;2023-03-31T02:15:40;12.73;;;5.00;;
16480;SDS011;44634;54.110;12.138;2023-03-31T02:18:13;6.97;;;4.10;;
16480;SDS011;44634;54.110;12.138;2023-03-31T02:20:46;10.63;;;4.93;;
16480;SDS011;44634;54.110;12.138;2023-03-31T02:23:18;7.93;;;4.07;;
16480;SDS011;44634;54.110;12.138;2023-03-31T02:25:54;7.77;;;4.40;;
16480;SDS011;44634;54.110;12.138;2023-03-31T02:28:27;10.67;;;4.10;;
16480;SDS011;44634;54.110;12.138;2023-03-31T02:30:59;7.10;;;4.20;;
16480;SDS011;44634;54.110;12.138;2023-03-31T02:33:33;8.30;;;4.30;;
16480;SDS011;44634;54.110;12.138;2023-03-31T02:36:02;8.67;;;4.80;;
16480;SDS011;44634;54.110;12.138;2023-03-31T02:38:31;11.17;;;4.73;;
16480;SDS011;44634;54.110;12.138;2023-03-31T02:41:05;8.23;;;4.23;;
16480;SDS011;44634;54.110;12.138;2023-03-31T02:43:33;8.77;;;4.57;;
16480;SDS011;44634;54.110;12.138;2023-03-31T02:46:01;6.70;;;4.13;;
16480;SDS011;44634;54.110;12.138;2023-03-31T02:48:30;8.03;;;4.30;;
16480;SDS011;44634;54.110;12.138;2023-03-31T02:51:07;10.83;;;4.27;;
16480;SDS011;44634;54.110;12.138;2023-03-31T02:53:56;10.40;;;4.13;;
16480;SDS011;44634;54.110;12.138;2023-03-31T02:56:43;8.17;;;4.37;;
16480;SDS011;44634;54.110;12.138;2023-03-31T02:59:26;7.27;;;4.70;;
16480;SDS011;44634;54.110;12.138;2023-03-31T03:02:07;7.87;;;4.47;;
16480;SDS011;44634;54.110;12.138;2023-03-31T03:07:45;9.67;;;5.00;;
16480;SDS011;44634;54.110;12.138;2023-03-31T03:10:20;7.90;;;5.00;;
16480;SDS011;44634;54.110;12.138;2023-03-31T03:13:03;7.83;;;5.27;;
16480;SDS011;44634;54.110;12.138;2023-03-31T03:15:36;7.40;;;4.83;;
16480;SDS011;44634;54.110;12.138;2023-03-31T03:18:10;14.17;;;4.83;;
16480;SDS011;44634;54.110;12.138;2023-03-31T03:20:39;11.93;;;5.57;;
16480;SDS011;44634;54.110;12.138;2023-03-31T03:23:13;10.47;;;5.20;;
16480;SDS011;44634;54.110;12.138;2023-03-31T03:25:42;8.57;;;4.90;;
16480;SDS011;44634;54.110;12.138;2023-03-31T03:28:12;6.77;;;5.17;;
16480;SDS011;44634;54.110;12.138;2023-03-31T03:30:40;11.90;;;6.00;;
16480;SDS011;44634;54.110;12.138;2023-03-31T03:33:08;6.90;;;5.17;;
16480;SDS011;44634;54.110;12.138;2023-03-31T03:35:36;8.47;;;5.67;;
16480;SDS011;44634;54.110;12.138;2023-03-31T03:38:04;10.03;;;5.43;;
16480;SDS011;44634;54.110;12.138;2023-03-31T03:40:31;10.67;;;5.27;;
16480;SDS011;44634;54.110;12.138;2023-03-31T03:42:59;12.57;;;5.27;;
16480;SDS011;44634;54.110;12.138;2023-03-31T03:45:28;8.60;;;5.40;;
16480;SDS011;44634;54.110;12.138;2023-03-31T03:47:56;13.00;;;6.10;;
16480;SDS011;44634;54.110;12.138;2023-03-31T03:50:24;13.27;;;5.40;;
16480;SDS011;44634;54.110;12.138;2023-03-31T03:52:52;11.87;;;5.97;;
16480;SDS011;44634;54.110;12.138;2023-03-31T03:55:20;8.90;;;4.77;;
16480;SDS011;44634;54.110;12.138;2023-03-31T03:57:48;11.53;;;4.93;;
16480;SDS011;44634;54.110;12.138;2023-03-31T04:00:16;10.53;;;5.30;;
16480;SDS011;44634;54.110;12.138;2023-03-31T04:02:45;12.93;;;6.23;;
16480;SDS011;44634;54.110;12.138;2023-03-31T04:05:13;10.60;;;4.87;;
16480;SDS011;44634;54.110;12.138;2023-03-31T04:07:41;12.30;;;5.03;;
16480;SDS011;44634;54.110;12.138;2023-03-31T04:10:09;11.13;;;5.40;;
16480;SDS011;44634;54.110;12.138;2023-03-31T04:12:37;13.13;;;5.27;;
16480;SDS011;44634;54.110;12.138;2023-03-31T04:15:05;12.53;;;5.37;;
16480;SDS011;44634;54.110;12.138;2023-03-31T04:17:33;13.10;;;5.40;;
16480;SDS011;44634;54.110;12.138;2023-03-31T04:20:04;13.10;;;5.37;;
16480;SDS011;44634;54.110;12.138;2023-03-31T04:22:34;11.23;;;5.00;;
16480;SDS011;44634;54.110;12.138;2023-03-31T04:25:07;12.97;;;5.10;;
16480;SDS011;44634;54.110;12.138;2023-03-31T04:27:41;11.97;;;5.03;;
16480;SDS011;44634;54.110;12.138;2023-03-31T04:30:12;14.57;;;5.80;;
16480;SDS011;44634;54.110;12.138;2023-03-31T04:32:48;11.67;;;4.60;;
16480;SDS011;44634;54.110;12.138;2023-03-31T04:35:20;14.40;;;4.90;;
16480;SDS011;44634;54.110;12.138;2023-03-31T04:37:50;16.10;;;5.63;;
16480;SDS011;44634;54.110;12.138;2023-03-31T04:40:24;13.10;;;4.67;;
16480;SDS011;44634;54.110;12.138;2023-03-31T04:42:52;10.53;;;4.80;;
16480;SDS011;44634;54.110;12.138;2023-03-31T04:45:20;12.90;;;5.13;;
16480;SDS011;44634;54.110;12.138;2023-03-31T04:47:48;15.27;;;4.93;;
16480;SDS011;44634;54.110;12.138;2023-03-31T04:50:16;10.37;;;5.17;;
16480;SDS011;44634;54.110;12.138;2023-03-31T04:52:45;9.00;;;4.87;;
16480;SDS011;44634;54.110;12.138;2023-03-31T04:55:13;10.87;;;4.90;;
16480;SDS011;44634;54.110;12.138;2023-03-31T04:57:41;9.80;;;4.83;;
16480;SDS011;44634;54.110;12.138;2023-03-31T05:00:09;11.17;;;5.30;;
16480;SDS011;44634;54.110;12.138;2023-03-31T05:02:38;13.63;;;5.37;;
16480;SDS011;44634;54.110;12.138;2023-03-31T05:05:06;13.97;;;5.90;;
16480;SDS011;44634;54.110;12.138;2023-03-31T05:07:34;11.47;;;5.10;;
16480;SDS011;44634;54.110;12.138;2023-03-31T05:10:03;11.10;;;5.00;;
16480;SDS011;44634;54.110;12.138;2023-03-31T05:12:32;13.93;;;5.27;;
16480;SDS011;44634;54.110;12.138;2023-03-31T05:15:04;11.77;;;5.50;;
16480;SDS011;44634;54.110;12.138;2023-03-31T05:17:34;13.40;;;5.83;;
16480;SDS011;44634;54.110;12.138;2023-03-31T05:20:03;11.63;;;5.30;;
16480;SDS011;44634;54.110;12.138;2023-03-31T05:22:34;9.90;;;5.70;;
16480;SDS011;44634;54.110;12.138;2023-03-31T05:25:05;11.67;;;5.70;;
16480;SDS011;44634;54.110;12.138;2023-03-31T05:27:35;11.47;;;6.07;;
16480;SDS011;44634;54.110;12.138;2023-03-31T05:30:03;14.63;;;6.13;;
16480;SDS011;44634;54.110;12.138;2023-03-31T05:32:33;16.23;;;7.00;;
16480;SDS011;44634;54.110;12.138;2023-03-31T05:35:01;12.53;;;6.20;;
16480;SDS011;44634;54.110;12.138;2023-03-31T05:37:29;11.20;;;6.63;;
16480;SDS011;44634;54.110;12.138;2023-03-31T05:39:57;15.13;;;8.03;;
16480;SDS011;44634;54.110;12.138;2023-03-31T05:42:26;12.67;;;6.90;;
16480;SDS011;44634;54.110;12.138;2023-03-31T05:44:54;15.73;;;7.60;;
16480;SDS011;44634;54.110;12.138;2023-03-31T05:47:22;17.40;;;6.73;;
16480;SDS011;44634;54.110;12.138;2023-03-31T05:49:50;15.07;;;7.37;;
16480;SDS011;44634;54.110;12.138;2023-03-31T05:52:18;14.97;;;7.03;;
16480;SDS011;44634;54.110;12.138;2023-03-31T05:54:46;17.83;;;7.10;;
16480;SDS011;44634;54.110;12.138;2023-03-31T05:57:14;16.03;;;7.37;;
16480;SDS011;44634;54.110;12.138;2023-03-31T05:59:43;13.20;;;7.20;;
16480;SDS011;44634;54.110;12.138;2023-03-31T06:02:11;13.70;;;7.80;;
16480;SDS011;44634;54.110;12.138;2023-03-31T06:04:40;14.73;;;7.53;;
16480;SDS011;44634;54.110;12.138;2023-03-31T06:07:09;20.83;;;8.77;;
16480;SDS011;44634;54.110;12.138;2023-03-31T06:09:36;16.97;;;7.57;;
16480;SDS011;44634;54.110;12.138;2023-03-31T06:12:04;11.40;;;6.77;;
16480;SDS011;44634;54.110;12.138;2023-03-31T06:14:33;14.60;;;8.10;;
16480;SDS011;44634;54.110;12.138;2023-03-31T06:17:02;17.40;;;7.97;;
16480;SDS011;44634;54.110;12.138;2023-03-31T06:19:30;15.53;;;8.33;;
16480;SDS011;44634;54.110;12.138;2023-03-31T06:21:58;16.70;;;8.33;;
16480;SDS011;44634;54.110;12.138;2023-03-31T06:24:26;16.17;;;8.00;;
16480;SDS011;44634;54.110;12.138;2023-03-31T06:26:55;15.87;;;7.70;;
16480;SDS011;44634;54.110;12.138;2023-03-31T06:29:22;18.00;;;8.13;;
16480;SDS011;44634;54.110;12.138;2023-03-31T06:31:50;16.20;;;7.07;;
16480;SDS011;44634;54.110;12.138;2023-03-31T06:34:19;13.27;;;7.83;;
16480;SDS011;44634;54.110;12.138;2023-03-31T06:36:47;12.10;;;6.97;;
16480;SDS011;44634;54.110;12.138;2023-03-31T06:39:16;16.30;;;7.87;;
16480;SDS011;44634;54.110;12.138;2023-03-31T06:41:43;15.87;;;7.90;;
16480;SDS011;44634;54.110;12.138;2023-03-31T06:44:11;16.67;;;8.53;;
16480;SDS011;44634;54.110;12.138;2023-03-31T06:46:41;14.13;;;8.33;;
16480;SDS011;44634;54.110;12.138;2023-03-31T06:49:10;14.27;;;8.30;;
16480;SDS011;44634;54.110;12.138;2023-03-31T06:51:39;15.27;;;8.23;;
16480;SDS011;44634;54.110;12.138;2023-03-31T06:54:07;18.13;;;8.77;;
16480;SDS011;44634;54.110;12.138;2023-03-31T06:56:34;16.47;;;9.00;;
16480;SDS011;44634;54.110;12.138;2023-03-31T06:59:02;15.87;;;8.37;;
16480;SDS011;44634;54.110;12.138;2023-03-31T07:01:30;13.10;;;8.93;;
16480;SDS011;44634;54.110;12.138;2023-03-31T07:04:02;16.37;;;9.07;;
16480;SDS011;44634;54.110;12.138;2023-03-31T07:06:30;16.57;;;9.40;;
16480;SDS011;44634;54.110;12.138;2023-03-31T07:08:59;22.40;;;9.57;;
16480;SDS011;44634;54.110;12.138;2023-03-31T07:11:27;19.43;;;9.53;;
16480;SDS011;44634;54.110;12.138;2023-03-31T07:13:55;17.00;;;9.10;;
16480;SDS011;44634;54.110;12.138;2023-03-31T07:16:22;14.73;;;8.73;;
16480;SDS011;44634;54.110;12.138;2023-03-31T07:18:50;20.00;;;9.10;;
16480;SDS011;44634;54.110;12.138;2023-03-31T07:21:19;15.60;;;9.33;;
16480;SDS011;44634;54.110;12.138;2023-03-31T07:23:47;27.37;;;11.60;;
16480;SDS011;44634;54.110;12.138;2023-03-31T07:26:16;17.13;;;9.77;;
16480;SDS011;44634;54.110;12.138;2023-03-31T07:28:44;15.63;;;9.67;;
16480;SDS011;44634;54.110;12.138;2023-03-31T07:31:12;16.50;;;10.07;;
16480;SDS011;44634;54.110;12.138;2023-03-31T07:33:41;17.23;;;9.90;;
16480;SDS011;44634;54.110;12.138;2023-03-31T07:36:09;17.40;;;9.93;;
16480;SDS011;44634;54.110;12.138;2023-03-31T07:38:39;15.70;;;10.50;;
16480;SDS011;44634;54.110;12.138;2023-03-31T07:41:11;17.43;;;10.37;;
16480;SDS011;44634;54.110;12.138;2023-03-31T07:43:42;16.63;;;10.53;;
16480;SDS011;44634;54.110;12.138;2023-03-31T07:46:13;17.70;;;9.77;;
16480;SDS011;44634;54.110;12.138;2023-03-31T07:48:43;16.30;;;10.40;;
16480;SDS011;44634;54.110;12.138;2023-03-31T07:51:12;19.87;;;10.13;;
16480;SDS011;44634;54.110;12.138;2023-03-31T07:53:42;18.50;;;10.57;;
16480;SDS011;44634;54.110;12.138;2023-03-31T07:56:10;18.70;;;10.27;;
16480;SDS011;44634;54.110;12.138;2023-03-31T07:58:38;18.93;;;11.00;;
16480;SDS011;44634;54.110;12.138;2023-03-31T08:01:07;14.70;;;9.30;;
16480;SDS011;44634;54.110;12.138;2023-03-31T08:03:35;14.23;;;9.00;;
16480;SDS011;44634;54.110;12.138;2023-03-31T08:06:03;19.10;;;10.73;;
16480;SDS011;44634;54.110;12.138;2023-03-31T08:08:31;15.37;;;10.13;;
16480;SDS011;44634;54.110;12.138;2023-03-31T08:10:59;16.83;;;10.47;;
16480;SDS011;44634;54.110;12.138;2023-03-31T08:13:26;14.53;;;9.60;;
16480;SDS011;44634;54.110;12.138;2023-03-31T08:15:54;15.60;;;9.83;;
16480;SDS011;44634;54.110;12.138;2023-03-31T08:18:23;15.13;;;10.17;;
16480;SDS011;44634;54.110;12.138;2023-03-31T08:20:51;16.20;;;10.37;;
16480;SDS011;44634;54.110;12.138;2023-03-31T08:23:19;17.67;;;10.23;;
16480;SDS011;44634;54.110;12.138;2023-03-31T08:25:47;14.33;;;9.30;;
16480;SDS011;44634;54.110;12.138;2023-03-31T08:28:14;15.50;;;9.70;;
16480;SDS011;44634;54.110;12.138;2023-03-31T08:30:43;16.00;;;9.63;;
16480;SDS011;44634;54.110;12.138;2023-03-31T08:33:12;17.93;;;9.77;;
16480;SDS011;44634;54.110;12.138;2023-03-31T08:35:41;14.33;;;8.73;;
16480;SDS011;44634;54.110;12.138;2023-03-31T08:38:09;13.77;;;9.97;;
16480;SDS011;44634;54.110;12.138;2023-03-31T08:40:37;11.30;;;8.00;;
16480;SDS011;44634;54.110;12.138;2023-03-31T08:43:09;12.67;;;8.10;;
16480;SDS011;44634;54.110;12.138;2023-03-31T08:45:42;11.93;;;8.40;;
16480;SDS011;44634;54.110;12.138;2023-03-31T08:48:15;15.80;;;8.00;;
16480;SDS011;44634;54.110;12.138;2023-03-31T08:50:53;15.27;;;7.50;;
16480;SDS011;44634;54.110;12.138;2023-03-31T08:53:25;9.70;;;8.23;;
16480;SDS011;44634;54.110;12.138;2023-03-31T08:55:56;12.90;;;7.60;;
16480;SDS011;44634;54.110;12.138;2023-03-31T08:58:30;11.17;;;7.17;;
16480;SDS011;44634;54.110;12.138;2023-03-31T09:01:04;13.80;;;7.80;;
16480;SDS011;44634;54.110;12.138;2023-03-31T09:03:41;12.80;;;7.13;;
16480;SDS011;44634;54.110;12.138;2023-03-31T09:06:16;13.43;;;7.03;;
16480;SDS011;44634;54.110;12.138;2023-03-31T09:08:49;10.10;;;7.43;;
16480;SDS011;44634;54.110;12.138;2023-03-31T09:11:23;9.13;;;6.73;;
16480;SDS011;44634;54.110;12.138;2023-03-31T09:16:58;9.90;;;6.17;;
16480;SDS011;44634;54.110;12.138;2023-03-31T09:19:39;8.77;;;5.70;;
16480;SDS011;44634;54.110;12.138;2023-03-31T09:22:13;7.43;;;5.83;;
16480;SDS011;44634;54.110;12.138;2023-03-31T09:24:46;13.23;;;6.53;;
16480;SDS011;44634;54.110;12.138;2023-03-31T09:27:18;8.80;;;5.53;;
16480;SDS011;44634;54.110;12.138;2023-03-31T09:29:47;8.07;;;5.53;;
16480;SDS011;44634;54.110;12.138;2023-03-31T09:32:20;13.60;;;5.87;;
16480;SDS011;44634;54.110;12.138;2023-03-31T09:34:50;7.67;;;4.93;;
16480;SDS011;44634;54.110;12.138;2023-03-31T09:37:24;7.93;;;5.27;;
16480;SDS011;44634;54.110;12.138;2023-03-31T09:40:01;9.00;;;5.10;;
16480;SDS011;44634;54.110;12.138;2023-03-31T09:42:33;8.03;;;5.47;;
16480;SDS011;44634;54.110;12.138;2023-03-31T09:45:01;6.27;;;4.73;;
16480;SDS011;44634;54.110;12.138;2023-03-31T09:47:31;8.03;;;4.80;;
16480;SDS011;44634;54.110;12.138;2023-03-31T09:50:04;6.47;;;4.73;;
16480;SDS011;44634;54.110;12.138;2023-03-31T09:52:36;8.97;;;4.90;;
16480;SDS011;44634;54.110;12.138;2023-03-31T09:55:12;8.53;;;4.80;;
16480;SDS011;44634;54.110;12.138;2023-03-31T09:58:04;6.60;;;4.67;;
16480;SDS011;44634;54.110;12.138;2023-03-31T10:00:33;8.30;;;3.97;;
16480;SDS011;44634;54.110;12.138;2023-03-31T10:03:02;6.07;;;3.70;;
16480;SDS011;44634;54.110;12.138;2023-03-31T10:05:33;8.40;;;4.33;;
16480;SDS011;44634;54.110;12.138;2023-03-31T10:08:25;7.47;;;3.87;;
16480;SDS011;44634;54.110;12.138;2023-03-31T10:10:57;11.33;;;4.07;;
16480;SDS011;44634;54.110;12.138;2023-03-31T10:13:36;7.83;;;3.63;;
16480;SDS011;44634;54.110;12.138;2023-03-31T10:16:11;8.17;;;3.87;;
16480;SDS011;44634;54.110;12.138;2023-03-31T10:18:41;6.33;;;4.27;;
16480;SDS011;44634;54.110;12.138;2023-03-31T10:21:16;5.63;;;4.17;;
16480;SDS011;44634;54.110;12.138;2023-03-31T10:23:49;7.67;;;4.07;;
16480;SDS011;44634;54.110;12.138;2023-03-31T10:26:17;5.83;;;4.30;;
16480;SDS011;44634;54.110;12.138;2023-03-31T10:28:47;8.73;;;3.77;;
16480;SDS011;44634;54.110;12.138;2023-03-31T10:31:18;5.03;;;3.57;;
16480;SDS011;44634;54.110;12.138;2023-03-31T10:33:51;4.90;;;3.90;;
16480;SDS011;44634;54.110;12.138;2023-03-31T10:36:20;7.27;;;4.10;;
16480;SDS011;44634;54.110;12.138;2023-03-31T10:38:53;11.73;;;4.33;;
16480;SDS011;44634;54.110;12.138;2023-03-31T10:41:22;9.40;;;4.77;;
16480;SDS011;44634;54.110;12.138;2023-03-31T10:43:52;7.43;;;3.97;;
16480;SDS011;44634;54.110;12.138;2023-03-31T10:46:38;9.67;;;4.00;;
16480;SDS011;44634;54.110;12.138;2023-03-31T10:49:14;7.00;;;3.97;;
16480;SDS011;44634;54.110;12.138;2023-03-31T10:51:51;9.23;;;4.33;;
16480;SDS011;44634;54.110;12.138;2023-03-31T10:54:21;7.40;;;4.63;;
16480;SDS011;44634;54.110;12.138;2023-03-31T10:56:49;6.53;;;3.93;;
16480;SDS011;44634;54.110;12.138;2023-03-31T10:59:24;10.30;;;4.27;;
16480;SDS011;44634;54.110;12.138;2023-03-31T11:02:11;5.70;;;3.70;;
16480;SDS011;44634;54.110;12.138;2023-03-31T11:04:55;6.47;;;4.10;;
16480;SDS011;44634;54.110;12.138;2023-03-31T11:07:36;10.97;;;3.77;;
16480;SDS011;44634;54.110;12.138;2023-03-31T11:10:22;5.63;;;3.60;;
16480;SDS011;44634;54.110;12.138;2023-03-31T11:13:10;7.33;;;3.87;;
16480;SDS011;44634;54.110;12.138;2023-03-31T11:15:49;5.87;;;3.43;;
16480;SDS011;44634;54.110;12.138;2023-03-31T11:18:30;6.40;;;3.37;;
16480;SDS011;44634;54.110;12.138;2023-03-31T11:21:05;5.60;;;3.30;;
16480;SDS011;44634;54.110;12.138;2023-03-31T11:23:42;7.73;;;3.37;;
16480;SDS011;44634;54.110;12.138;2023-03-31T11:26:18;6.53;;;3.00;;
16480;SDS011;44634;54.110;12.138;2023-03-31T11:28:54;5.57;;;3.03;;
16480;SDS011;44634;54.110;12.138;2023-03-31T11:31:32;9.00;;;3.30;;
16480;SDS011;44634;54.110;12.138;2023-03-31T11:34:15;7.27;;;3.13;;
16480;SDS011;44634;54.110;12.138;2023-03-31T11:40:04;7.23;;;3.37;;
16480;SDS011;44634;54.110;12.138;2023-03-31T11:42:45;9.20;;;3.70;;
16480;SDS011;44634;54.110;12.138;2023-03-31T11:45:18;5.83;;;2.80;;
16480;SDS011;44634;54.110;12.138;2023-03-31T11:47:50;7.33;;;2.60;;
16480;SDS011;44634;54.110;12.138;2023-03-31T11:50:21;8.50;;;2.67;;
16480;SDS011;44634;54.110;12.138;2023-03-31T11:52:55;7.97;;;3.00;;
16480;SDS011;44634;54.110;12.138;2023-03-31T11:55:27;3.80;;;3.33;;
16480;SDS011;44634;54.110;12.138;2023-03-31T11:58:00;7.67;;;3.23;;
16480;SDS011;44634;54.110;12.138;2023-03-31T12:00:31;6.40;;;3.60;;
16480;SDS011;44634;54.110;12.138;2023-03-31T12:03:04;3.43;;;2.90;;
16480;SDS011;44634;54.110;12.138;2023-03-31T12:05:38;7.63;;;3.50;;
16480;SDS011;44634;54.110;12.138;2023-03-31T12:08:12;7.50;;;3.60;;
16480;SDS011;44634;54.110;12.138;2023-03-31T12:10:44;4.80;;;3.00;;
16480;SDS011;44634;54.110;12.138;2023-03-31T12:13:25;6.03;;;3.57;;
16480;SDS011;44634;54.110;12.138;2023-03-31T12:16:00;4.73;;;3.40;;
16480;SDS011;44634;54.110;12.138;2023-03-31T12:18:33;8.03;;;3.97;;
16480;SDS011;44634;54.110;12.138;2023-03-31T12:21:05;6.83;;;4.20;;
16480;SDS011;44634;54.110;12.138;2023-03-31T12:23:34;6.50;;;3.93;;
16480;SDS011;44634;54.110;12.138;2023-03-31T12:26:10;8.23;;;3.60;;
16480;SDS011;44634;54.110;12.138;2023-03-31T12:28:49;8.07;;;3.70;;
16480;SDS011;44634;54.110;12.138;2023-03-31T12:31:24;5.93;;;3.57;;
16480;SDS011;44634;54.110;12.138;2023-03-31T12:33:56;7.87;;;3.47;;
16480;SDS011;44634;54.110;12.138;2023-03-31T12:36:33;3.93;;;2.77;;
16480;SDS011;44634;54.110;12.138;2023-03-31T12:39:20;5.17;;;2.70;;
16480;SDS011;44634;54.110;12.138;2023-03-31T12:42:03;8.03;;;3.20;;
16480;SDS011;44634;54.110;12.138;2023-03-31T12:45:00;5.27;;;3.20;;
16480;SDS011;44634;54.110;12.138;2023-03-31T12:47:43;7.70;;;3.50;;
16480;SDS011;44634;54.110;12.138;2023-03-31T12:50:25;6.90;;;3.20;;
16480;SDS011;44634;54.110;12.138;2023-03-31T12:53:04;4.80;;;3.17;;
16480;SDS011;44634;54.110;12.138;2023-03-31T12:55:43;8.37;;;3.83;;
16480;SDS011;44634;54.110;12.138;2023-03-31T13:01:06;8.43;;;3.80;;
16480;SDS011;44634;54.110;12.138;2023-03-31T13:03:41;5.80;;;3.37;;
16480;SDS011;44634;54.110;12.138;2023-03-31T13:12:20;7.43;;;3.67;;
16480;SDS011;44634;54.110;12.138;2023-03-31T13:14:50;5.00;;;2.97;;
16480;SDS011;44634;54.110;12.138;2023-03-31T13:17:23;7.93;;;3.37;;
16480;SDS011;44634;54.110;12.138;2023-03-31T13:20:13;7.47;;;2.93;;
16480;SDS011;44634;54.110;12.138;2023-03-31T13:22:45;9.03;;;3.50;;
16480;SDS011;44634;54.110;12.138;2023-03-31T13:25:37;3.50;;;2.37;;
16480;SDS011;44634;54.110;12.138;2023-03-31T13:28:10;2.67;;;1.97;;
16480;SDS011;44634;54.110;12.138;2023-03-31T13:30:54;3.60;;;2.70;;
16480;SDS011;44634;54.110;12.138;2023-03-31T13:33:30;4.73;;;3.13;;
16480;SDS011;44634;54.110;12.138;2023-03-31T13:36:09;5.80;;;3.77;;
16480;SDS011;44634;54.110;12.138;2023-03-31T13:38:52;5.13;;;4.53;;
16480;SDS011;44634;54.110;12.138;2023-03-31T13:41:34;5.37;;;3.60;;
16480;SDS011;44634;54.110;12.138;2023-03-31T13:50:35;5.30;;;2.80;;
16480;SDS011;44634;54.110;12.138;2023-03-31T13:53:16;5.37;;;2.90;;
16480;SDS011;44634;54.110;12.138;2023-03-31T13:55:57;3.20;;;2.17;;
16480;SDS011;44634;54.110;12.138;2023-03-31T13:58:39;4.37;;;2.70;;
16480;SDS011;44634;54.110;12.138;2023-03-31T14:04:19;4.33;;;2.70;;
16480;SDS011;44634;54.110;12.138;2023-03-31T14:06:58;5.27;;;2.70;;
16480;SDS011;44634;54.110;12.138;2023-03-31T14:09:34;2.63;;;2.43;;
16480;SDS011;44634;54.110;12.138;2023-03-31T14:12:17;10.77;;;7.30;;
16480;SDS011;44634;54.110;12.138;2023-03-31T14:14:47;11.50;;;7.13;;
16480;SDS011;44634;54.110;12.138;2023-03-31T14:17:19;3.87;;;3.37;;
16480;SDS011;44634;54.110;12.138;2023-03-31T14:19:54;8.13;;;3.00;;
16480;SDS011;44634;54.110;12.138;2023-03-31T14:22:40;4.80;;;2.80;;
16480;SDS011;44634;54.110;12.138;2023-03-31T14:25:15;3.43;;;3.07;;
16480;SDS011;44634;54.110;12.138;2023-03-31T14:27:55;3.63;;;2.90;;
16480;SDS011;44634;54.110;12.138;2023-03-31T14:30:34;5.40;;;2.83;;
16480;SDS011;44634;54.110;12.138;2023-03-31T14:33:11;4.40;;;2.90;;
16480;SDS011;44634;54.110;12.138;2023-03-31T14:35:51;4.17;;;2.43;;
16480;SDS011;44634;54.110;12.138;2023-03-31T14:38:28;6.57;;;3.27;;
16480;SDS011;44634;54.110;12.138;2023-03-31T14:40:57;5.03;;;2.10;;
16480;SDS011;44634;54.110;12.138;2023-03-31T14:43:27;4.70;;;2.40;;
16480;SDS011;44634;54.110;12.138;2023-03-31T14:45:59;3.70;;;2.43;;
16480;SDS011;44634;54.110;12.138;2023-03-31T14:48:28;3.40;;;2.77;;
16480;SDS011;44634;54.110;12.138;2023-03-31T14:50:59;5.07;;;2.90;;
16480;SDS011;44634;54.110;12.138;2023-03-31T14:53:30;5.07;;;3.20;;
16480;SDS011;44634;54.110;12.138;2023-03-31T14:56:00;3.10;;;2.30;;
16480;SDS011;44634;54.110;12.138;2023-03-31T14:58:34;6.23;;;2.77;;
16480;SDS011;44634;54.110;12.138;2023-03-31T15:01:06;5.03;;;2.90;;
16480;SDS011;44634;54.110;12.138;2023-03-31T15:03:38;3.63;;;2.10;;
16480;SDS011;44634;54.110;12.138;2023-03-31T15:06:07;3.97;;;1.90;;
16480;SDS011;44634;54.110;12.138;2023-03-31T15:08:38;3.23;;;2.00;;
16480;SDS011;44634;54.110;12.138;2023-03-31T15:11:07;2.53;;;1.80;;
16480;SDS011;44634;54.110;12.138;2023-03-31T15:13:44;3.80;;;1.93;;
16480;SDS011;44634;54.110;12.138;2023-03-31T15:16:32;4.73;;;1.47;;
16480;SDS011;44634;54.110;12.138;2023-03-31T15:19:04;4.30;;;2.53;;
16480;SDS011;44634;54.110;12.138;2023-03-31T15:21:40;5.97;;;2.27;;
16480;SDS011;44634;54.110;12.138;2023-03-31T15:24:10;3.07;;;2.07;;
16480;SDS011;44634;54.110;12.138;2023-03-31T15:26:40;4.70;;;1.90;;
16480;SDS011;44634;54.110;12.138;2023-03-31T15:29:14;1.70;;;1.60;;
16480;SDS011;44634;54.110;12.138;2023-03-31T15:31:46;4.27;;;1.57;;
16480;SDS011;44634;54.110;12.138;2023-03-31T15:34:28;3.53;;;1.70;;
16480;SDS011;44634;54.110;12.138;2023-03-31T15:36:58;2.47;;;2.10;;